Time;durP1;ratioP1;P1;durP2;ratioP2;P2;SDS_P1;SDS_P2;PMS_P1;PMS_P2;Temp;Humidity;BMP_temperature;BMP_pressure;BME280_temperature;BME280_humidity;BME280_pressure;Samples;Min_cycle;Max_cycle;Signal;HPM_P1;HPM_P2
2022/06/27 00:00:33;;;;;;;5.27;4.27;;;;;;;16.46;100.00;99816.28;5005996;28;20672;-68
2022/06/27 00:02:59;;;;;;;5.70;4.60;;;;;;;16.41;100.00;99761.34;5011264;28;20206;-68
2022/06/27 00:05:24;;;;;;;7.07;4.50;;;;;;;16.39;100.00;99750.25;5014599;28;20263;-69
2022/06/27 00:07:49;;;;;;;6.07;5.07;;;;;;;16.43;100.00;99753.41;5027640;28;20190;-70
2022/06/27 00:10:15;;;;;;;7.07;5.67;;;;;;;16.46;100.00;99784.31;5003348;28;20262;-69
2022/06/27 00:12:40;;;;;;;5.93;5.33;;;;;;;16.45;100.00;99808.63;5011219;28;20257;-69
2022/06/27 00:15:08;;;;;;;7.60;6.03;;;;;;;16.62;100.00;99821.00;5012607;28;20642;-69
2022/06/27 00:17:33;;;;;;;5.60;4.60;;;;;;;16.69;100.00;99830.88;5026952;28;20215;-70
2022/06/27 00:19:59;;;;;;;9.33;6.13;;;;;;;16.65;100.00;99848.50;5011785;28;20332;-71
2022/06/27 00:22:25;;;;;;;6.73;5.47;;;;;;;16.74;100.00;99858.09;5017498;28;20229;-69
2022/06/27 00:24:50;;;;;;;7.43;5.67;;;;;;;16.89;100.00;99866.38;5027331;28;20261;-69
2022/06/27 00:27:16;;;;;;;8.37;5.80;;;;;;;16.90;100.00;99882.78;5012139;28;20257;-69
2022/06/27 00:29:42;;;;;;;6.53;5.93;;;;;;;16.95;100.00;99891.03;5011588;28;20309;-69
2022/06/27 00:32:07;;;;;;;6.43;5.80;;;;;;;16.91;100.00;99913.00;5011620;28;20234;-70
2022/06/27 00:34:32;;;;;;;6.00;5.23;;;;;;;16.91;100.00;99907.81;5010081;28;20179;-71
2022/06/27 00:36:58;;;;;;;6.10;5.50;;;;;;;16.89;100.00;99897.56;5012051;28;20179;-70
2022/06/27 00:39:23;;;;;;;6.40;5.43;;;;;;;16.88;100.00;99908.06;5011359;28;20281;-71
2022/06/27 00:41:49;;;;;;;7.30;5.67;;;;;;;16.91;100.00;99916.44;5015355;28;20681;-69
2022/06/27 00:44:31;;;;;;;7.10;5.70;;;;;;;16.92;100.00;99931.09;5023179;28;20691;-70
2022/06/27 00:46:56;;;;;;;6.70;6.07;;;;;;;16.94;100.00;99931.78;4998669;28;20182;-70
2022/06/27 00:49:22;;;;;;;7.57;6.20;;;;;;;16.99;100.00;99946.97;5011664;28;20265;-70
2022/06/27 00:51:47;;;;;;;6.80;5.93;;;;;;;17.06;100.00;99948.09;5014842;28;20303;-70
2022/06/27 00:54:12;;;;;;;6.93;6.23;;;;;;;17.14;100.00;99955.28;5015704;28;20186;-71
2022/06/27 00:56:39;;;;;;;7.23;6.53;;;;;;;17.29;100.00;99953.16;5011738;28;20171;-70
2022/06/27 00:59:04;;;;;;;7.90;6.77;;;;;;;17.33;100.00;99954.53;5026149;28;20704;-69
2022/06/27 01:01:29;;;;;;;9.27;5.93;;;;;;;17.16;100.00;99955.16;5012237;28;20218;-69
2022/06/27 01:04:00;;;;;;;7.80;6.73;;;;;;;17.12;100.00;99958.94;5014949;28;20187;-70
2022/06/27 01:06:26;;;;;;;8.17;6.27;;;;;;;17.11;100.00;99955.53;5012281;28;20175;-69
2022/06/27 01:08:51;;;;;;;7.50;6.70;;;;;;;17.23;100.00;99954.50;5011644;28;20477;-69
2022/06/27 01:11:17;;;;;;;7.27;6.57;;;;;;;17.18;100.00;99964.44;5010588;28;20255;-69
2022/06/27 01:13:42;;;;;;;15.73;6.43;;;;;;;17.26;100.00;99961.19;5017285;28;20657;-69
2022/06/27 01:16:07;;;;;;;10.20;7.13;;;;;;;17.13;100.00;99968.38;5012034;28;20221;-68
2022/06/27 01:18:33;;;;;;;10.87;6.80;;;;;;;17.16;100.00;99966.34;5010193;28;20708;-72
2022/06/27 01:20:59;;;;;;;8.97;7.30;;;;;;;17.24;100.00;99969.13;5008283;28;20573;-69
2022/06/27 01:23:24;;;;;;;12.63;7.07;;;;;;;17.30;100.00;99964.34;5019475;28;20187;-69
2022/06/27 01:25:50;;;;;;;8.47;7.07;;;;;;;17.41;100.00;99959.06;5011260;28;20717;-68
2022/06/27 01:28:15;;;;;;;16.87;7.03;;;;;;;17.36;100.00;99958.63;5026668;28;20178;-70
2022/06/27 01:30:41;;;;;;;13.33;6.43;;;;;;;17.35;100.00;99949.19;5004599;28;20609;-72
2022/06/27 01:33:06;;;;;;;8.93;6.70;;;;;;;17.43;100.00;99942.38;5022331;28;20236;-70
2022/06/27 01:35:31;;;;;;;6.33;5.70;;;;;;;17.18;100.00;99935.03;5026400;28;20175;-69
2022/06/27 01:41:19;;;;;;;10.43;7.07;;;;;;;17.04;100.00;99885.06;5013018;28;20716;-69
2022/06/27 01:43:48;;;;;;;10.20;7.23;;;;;;;17.00;100.00;99872.47;5026401;28;20174;-67
2022/06/27 01:46:15;;;;;;;10.17;7.57;;;;;;;16.99;100.00;99858.63;5000166;28;20180;-68
2022/06/27 01:48:41;;;;;;;8.27;7.40;;;;;;;16.89;100.00;99848.19;5029957;28;20233;-69
2022/06/27 01:51:08;;;;;;;8.80;7.67;;;;;;;16.97;100.00;99831.97;5013102;28;20225;-69
2022/06/27 01:53:35;;;;;;;9.63;8.40;;;;;;;17.05;100.00;99832.13;5013355;28;20179;-69
2022/06/27 01:56:01;;;;;;;8.80;8.07;;;;;;;17.13;100.00;99822.84;5012018;28;20243;-69
2022/06/27 01:58:26;;;;;;;8.43;7.53;;;;;;;17.23;100.00;99819.31;5014380;28;20722;-68
2022/06/27 02:00:52;;;;;;;8.97;8.07;;;;;;;17.09;100.00;99815.34;4997984;28;20321;-68
2022/06/27 02:03:18;;;;;;;9.40;8.40;;;;;;;16.97;100.00;99798.19;5023810;28;20205;-68
2022/06/27 02:05:45;;;;;;;8.53;7.73;;;;;;;16.99;100.00;99787.66;4999907;28;20194;-68
2022/06/27 02:08:10;;;;;;;11.00;9.03;;;;;;;16.94;100.00;99775.06;4996836;28;20614;-68
2022/06/27 02:10:36;;;;;;;9.07;8.27;;;;;;;16.85;100.00;99775.84;4992629;28;20329;-68
2022/06/27 02:13:02;;;;;;;9.13;8.37;;;;;;;16.86;100.00;99785.28;5025937;28;20248;-68
2022/06/27 02:15:27;;;;;;;11.13;9.47;;;;;;;17.00;100.00;99792.72;5028629;28;20947;-68
2022/06/27 02:17:52;;;;;;;11.90;10.63;;;;;;;17.03;100.00;99786.44;4993916;28;20184;-70
2022/06/27 02:20:18;;;;;;;10.97;9.97;;;;;;;17.14;100.00;99780.31;4999063;28;20261;-69
2022/06/27 02:22:44;;;;;;;11.53;10.33;;;;;;;16.90;100.00;99766.69;5012935;28;20202;-69
2022/06/27 02:25:10;;;;;;;10.97;10.03;;;;;;;16.96;100.00;99769.75;5004321;28;20282;-69
2022/06/27 02:27:35;;;;;;;11.37;10.27;;;;;;;16.99;100.00;99761.69;4999178;28;20213;-69
2022/06/27 02:30:02;;;;;;;9.87;8.93;;;;;;;17.12;100.00;99764.88;5010523;28;20191;-69
2022/06/27 02:32:28;;;;;;;10.97;9.87;;;;;;;17.08;100.00;99777.31;4972110;28;20230;-70
2022/06/27 02:34:56;;;;;;;11.37;10.37;;;;;;;17.10;100.00;99775.41;4995315;28;20266;-69
2022/06/27 02:37:23;;;;;;;15.67;10.63;;;;;;;17.03;100.00;99763.91;4993404;28;20183;-68
2022/06/27 02:39:49;;;;;;;10.87;9.87;;;;;;;16.98;100.00;99768.69;4993057;28;20675;-68
2022/06/27 02:42:17;;;;;;;11.60;10.50;;;;;;;16.93;100.00;99781.22;4996477;28;20353;-68
2022/06/27 02:44:43;;;;;;;12.70;11.40;;;;;;;17.11;100.00;99794.41;5038741;28;20674;-69
2022/06/27 02:47:08;;;;;;;12.77;11.57;;;;;;;17.24;100.00;99796.75;5029393;28;20278;-69
2022/06/27 02:49:34;;;;;;;12.77;11.57;;;;;;;17.34;100.00;99808.00;4998436;28;20191;-70
2022/06/27 02:52:09;;;;;;;13.83;12.53;;;;;;;17.38;100.00;99803.34;5006094;28;20229;-70
2022/06/27 02:54:47;;;;;;;14.20;12.80;;;;;;;17.38;100.00;99795.56;5030620;28;20178;-70
2022/06/27 02:57:29;;;;;;;13.70;12.40;;;;;;;17.31;100.00;99776.25;5013934;28;20660;-68
2022/06/27 02:59:56;;;;;;;12.40;11.30;;;;;;;17.19;100.00;99778.13;5013436;28;20238;-69
2022/06/27 03:02:24;;;;;;;10.97;9.87;;;;;;;17.26;100.00;99761.06;4972278;28;21017;-69
2022/06/27 03:04:50;;;;;;;15.80;11.00;;;;;;;17.33;100.00;99771.72;4984706;28;20187;-69
2022/06/27 03:07:15;;;;;;;11.37;10.33;;;;;;;17.33;100.00;99792.50;5011040;28;20607;-69
2022/06/27 03:09:40;;;;;;;12.77;11.23;;;;;;;17.39;100.00;99792.81;5008560;28;20187;-70
2022/06/27 03:12:06;;;;;;;12.57;11.47;;;;;;;17.46;100.00;99781.88;5004800;28;20222;-68
2022/06/27 03:14:31;;;;;;;12.50;11.23;;;;;;;17.39;100.00;99790.22;5013606;28;20241;-71
2022/06/27 03:16:57;;;;;;;12.87;11.57;;;;;;;17.40;100.00;99811.81;5018339;28;20333;-69
2022/06/27 03:19:22;;;;;;;12.53;11.33;;;;;;;17.51;100.00;99800.47;4999524;28;20321;-70
2022/06/27 03:21:47;;;;;;;11.93;10.90;;;;;;;17.53;100.00;99796.78;5016170;28;20225;-70
2022/06/27 03:24:12;;;;;;;14.07;10.67;;;;;;;17.59;100.00;99809.25;5015597;28;20194;-70
2022/06/27 03:26:38;;;;;;;10.87;9.87;;;;;;;17.58;100.00;99812.78;5012778;28;20186;-71
2022/06/27 03:29:03;;;;;;;10.77;9.73;;;;;;;17.64;100.00;99801.03;5012718;28;20187;-70
2022/06/27 03:31:30;;;;;;;11.63;9.90;;;;;;;17.56;100.00;99798.28;4992711;28;20218;-70
2022/06/27 03:33:56;;;;;;;10.27;9.37;;;;;;;17.45;100.00;99801.03;5018205;28;20195;-70
2022/06/27 03:36:21;;;;;;;10.83;9.93;;;;;;;17.64;100.00;99803.63;5013219;28;20178;-70
2022/06/27 03:38:46;;;;;;;10.73;9.63;;;;;;;17.67;100.00;99811.16;5012843;28;20234;-69
2022/06/27 03:41:12;;;;;;;10.07;9.17;;;;;;;17.66;100.00;99822.53;5011984;28;20221;-70
2022/06/27 03:43:37;;;;;;;10.10;9.10;;;;;;;17.64;100.00;99844.41;5023686;28;20240;-68
2022/06/27 03:46:03;;;;;;;9.73;8.80;;;;;;;17.61;100.00;99850.72;5016751;28;20225;-69
2022/06/27 03:51:26;;;;;;;9.70;8.73;;;;;;;17.64;100.00;99845.25;5002853;28;20224;-74
2022/06/27 03:53:52;;;;;;;8.80;8.10;;;;;;;17.65;100.00;99831.28;5014058;28;20191;-70
2022/06/27 03:56:17;;;;;;;9.27;8.37;;;;;;;17.55;100.00;99820.88;5013501;28;20598;-70
2022/06/27 03:58:42;;;;;;;9.00;8.20;;;;;;;17.66;100.00;99809.53;5012269;28;20264;-69
2022/06/27 04:01:08;;;;;;;9.00;8.20;;;;;;;17.70;100.00;99831.69;5010740;28;20284;-65
2022/06/27 04:03:33;;;;;;;10.03;9.03;;;;;;;17.71;100.00;99837.72;5015478;28;20237;-63
2022/06/27 04:05:58;;;;;;;9.37;8.50;;;;;;;17.66;100.00;99853.75;5013031;28;20233;-64
2022/06/27 04:08:24;;;;;;;8.33;7.43;;;;;;;17.61;100.00;99855.91;5012648;28;20183;-63
2022/06/27 04:10:49;;;;;;;9.90;7.30;;;;;;;17.67;100.00;99852.75;5008343;28;20232;-62
2022/06/27 04:13:14;;;;;;;8.57;7.83;;;;;;;17.50;100.00;99848.22;5021620;28;20194;-62
2022/06/27 04:15:39;;;;;;;9.50;8.60;;;;;;;17.61;100.00;99853.31;5012620;28;20186;-63
2022/06/27 04:18:05;;;;;;;10.90;9.90;;;;;;;17.63;100.00;99851.41;5012564;28;20206;-62
2022/06/27 04:20:30;;;;;;;12.23;10.90;;;;;;;17.55;100.00;99846.88;5005449;28;20229;-61
2022/06/27 04:22:56;;;;;;;15.60;11.10;;;;;;;17.59;100.00;99819.66;5023188;28;20194;-62
2022/06/27 04:25:21;;;;;;;13.20;11.87;;;;;;;17.57;100.00;99807.72;5012314;28;20321;-64
2022/06/27 04:27:47;;;;;;;11.77;10.77;;;;;;;17.52;100.00;99826.34;5011928;28;20183;-63
2022/06/27 04:30:16;;;;;;;13.67;11.77;;;;;;;17.52;100.00;99838.53;5002822;28;20190;-63
2022/06/27 04:32:44;;;;;;;11.60;10.57;;;;;;;17.60;100.00;99841.28;5025430;28;20211;-63
2022/06/27 04:35:09;;;;;;;11.90;10.67;;;;;;;17.64;100.00;99831.41;5011121;28;20298;-64
2022/06/27 04:37:35;;;;;;;11.93;10.83;;;;;;;17.65;100.00;99826.09;5012004;28;20194;-64
2022/06/27 04:40:00;;;;;;;11.03;10.03;;;;;;;17.57;100.00;99831.94;5011406;28;20672;-63
2022/06/27 04:42:26;;;;;;;11.87;10.50;;;;;;;17.54;100.00;99847.03;5017293;28;20230;-63
2022/06/27 04:44:52;;;;;;;13.90;11.73;;;;;;;17.76;100.00;99843.31;5023977;28;20193;-63
2022/06/27 04:47:17;;;;;;;13.00;10.70;;;;;;;17.90;100.00;99844.72;4991318;28;20191;-63
2022/06/27 04:49:43;;;;;;;11.73;10.70;;;;;;;17.93;100.00;99852.22;5006151;28;20185;-65
2022/06/27 04:52:11;;;;;;;10.80;9.80;;;;;;;17.65;100.00;99846.91;5017785;28;20573;-63
2022/06/27 04:54:36;;;;;;;13.57;9.80;;;;;;;17.71;100.00;99850.72;5015651;28;20546;-64
2022/06/27 04:57:03;;;;;;;12.33;10.07;;;;;;;17.79;100.00;99839.66;5011852;28;20182;-65
2022/06/27 04:59:28;;;;;;;10.87;9.97;;;;;;;17.98;100.00;99841.44;5026359;28;20244;-64
2022/06/27 05:01:54;;;;;;;11.03;9.87;;;;;;;17.87;100.00;99842.38;5003259;28;20285;-65
2022/06/27 05:04:20;;;;;;;11.50;10.40;;;;;;;18.03;100.00;99857.47;5012986;28;20207;-65
2022/06/27 05:06:46;;;;;;;11.23;10.10;;;;;;;18.28;100.00;99863.88;5028790;28;20181;-65
2022/06/27 05:09:13;;;;;;;11.10;10.00;;;;;;;18.57;100.00;99859.56;5026123;28;20538;-66
2022/06/27 05:11:39;;;;;;;10.37;9.47;;;;;;;18.61;100.00;99864.34;5013511;28;20296;-66
2022/06/27 05:14:04;;;;;;;9.63;8.60;;;;;;;18.96;100.00;99870.69;5014586;28;20540;-65
2022/06/27 05:16:30;;;;;;;10.60;9.10;;;;;;;19.11;100.00;99875.44;5010566;28;20187;-66
2022/06/27 05:18:55;;;;;;;9.63;7.90;;;;;;;19.31;100.00;99869.19;5010641;28;20266;-66
2022/06/27 05:21:21;;;;;;;11.10;8.50;;;;;;;19.43;100.00;99858.53;5010535;28;20218;-66
2022/06/27 05:23:46;;;;;;;8.50;7.07;;;;;;;19.42;100.00;99855.09;5016822;28;20642;-66
2022/06/27 05:26:11;;;;;;;9.57;7.20;;;;;;;19.24;100.00;99828.16;5011411;28;20225;-66
2022/06/27 05:28:37;;;;;;;8.50;7.20;;;;;;;19.23;100.00;99836.97;5026254;28;20661;-67
2022/06/27 05:31:02;;;;;;;7.80;7.00;;;;;;;19.37;100.00;99846.06;5009324;28;20244;-66
2022/06/27 05:33:28;;;;;;;7.70;6.97;;;;;;;19.58;100.00;99859.66;5018787;28;20199;-67
2022/06/27 05:35:53;;;;;;;10.20;7.70;;;;;;;19.80;100.00;99874.06;5026680;28;20336;-68
2022/06/27 05:38:20;;;;;;;6.60;5.23;;;;;;;19.92;100.00;99879.06;5011286;28;20193;-66
2022/06/27 05:40:46;;;;;;;14.57;10.30;;;;;;;20.10;100.00;99885.09;5005711;28;20580;-67
2022/06/27 05:43:14;;;;;;;4.97;4.17;;;;;;;20.11;100.00;99883.31;5022374;28;20181;-66
2022/06/27 05:45:39;;;;;;;10.07;4.70;;;;;;;20.14;100.00;99881.22;5022602;28;20175;-68
2022/06/27 05:48:06;;;;;;;4.23;3.83;;;;;;;20.23;100.00;99876.88;5026330;28;20181;-67
2022/06/27 05:50:31;;;;;;;5.23;3.80;;;;;;;20.53;100.00;99861.75;5004586;28;20232;-66
2022/06/27 05:52:59;;;;;;;10.13;4.03;;;;;;;20.72;100.00;99842.41;5025545;28;20170;-68
2022/06/27 05:55:25;;;;;;;5.07;3.63;;;;;;;20.92;100.00;99852.66;5011085;28;20198;-67
2022/06/27 05:57:53;;;;;;;6.93;3.53;;;;;;;21.02;100.00;99874.25;5011352;28;20602;-66
2022/06/27 06:00:19;;;;;;;3.87;3.47;;;;;;;20.77;100.00;99873.31;5002586;28;20210;-68
2022/06/27 06:02:45;;;;;;;5.83;3.53;;;;;;;20.80;100.00;99876.44;5024088;28;20179;-66
2022/06/27 06:05:12;;;;;;;4.53;3.60;;;;;;;20.83;100.00;99895.44;5012904;28;20178;-69
2022/06/27 06:07:38;;;;;;;3.43;3.13;;;;;;;20.85;100.00;99899.53;5010328;28;20179;-66
2022/06/27 06:10:04;;;;;;;6.00;3.93;;;;;;;20.65;100.00;99904.09;5000333;28;20281;-67
2022/06/27 06:12:30;;;;;;;4.30;3.83;;;;;;;20.34;100.00;99903.72;5025182;28;20206;-66
2022/06/27 06:15:02;;;;;;;4.77;3.40;;;;;;;20.30;100.00;99908.44;5008887;28;20181;-67
2022/06/27 06:17:29;;;;;;;4.27;3.20;;;;;;;20.22;100.00;99909.19;5009513;28;20222;-66
2022/06/27 06:19:54;;;;;;;4.53;3.10;;;;;;;20.04;100.00;99914.41;5007225;28;20243;-67
2022/06/27 06:22:19;;;;;;;4.70;3.33;;;;;;;20.29;100.00;99912.84;4998044;28;20305;-71
2022/06/27 06:24:47;;;;;;;4.37;3.67;;;;;;;20.23;100.00;99912.63;5008793;28;20517;-69
2022/06/27 06:27:13;;;;;;;7.90;3.50;;;;;;;20.25;100.00;99905.47;5011447;28;20540;-67
2022/06/27 06:29:39;;;;;;;4.63;3.10;;;;;;;20.19;100.00;99919.94;5009970;28;20191;-68
2022/06/27 06:32:05;;;;;;;5.87;3.67;;;;;;;20.16;100.00;99925.47;5021654;28;20721;-69
2022/06/27 06:34:30;;;;;;;5.23;3.77;;;;;;;20.02;100.00;99942.50;5008992;28;20175;-69
2022/06/27 06:36:55;;;;;;;5.53;3.47;;;;;;;20.22;100.00;99943.16;5028712;28;20194;-68
2022/06/27 06:39:21;;;;;;;3.47;3.10;;;;;;;20.28;100.00;99950.38;5012659;28;20210;-69
2022/06/27 06:41:47;;;;;;;3.33;3.03;;;;;;;20.36;100.00;99946.19;5017086;28;20225;-67
2022/06/27 06:44:12;;;;;;;3.67;2.50;;;;;;;20.36;100.00;99949.63;5025078;28;20185;-67
2022/06/27 06:46:39;;;;;;;4.70;3.13;;;;;;;20.56;100.00;99931.16;5012988;28;20186;-70
2022/06/27 06:49:05;;;;;;;2.57;2.33;;;;;;;20.40;100.00;99924.81;5029983;28;20195;-69
2022/06/27 06:51:34;;;;;;;2.60;2.40;;;;;;;20.48;100.00;99924.09;5022329;28;20249;-69
2022/06/27 06:54:00;;;;;;;3.67;2.20;;;;;;;20.42;100.00;99911.63;5018231;28;20273;-68
2022/06/27 06:56:26;;;;;;;4.87;2.10;;;;;;;20.53;100.00;99911.38;5014820;28;20521;-68
2022/06/27 06:58:51;;;;;;;3.70;2.53;;;;;;;20.75;100.00;99893.56;5009416;28;20202;-69
2022/06/27 07:01:18;;;;;;;2.87;2.40;;;;;;;20.76;100.00;99893.44;4993660;28;20231;-68
2022/06/27 07:03:43;;;;;;;4.63;2.60;;;;;;;20.83;100.00;99909.31;4999142;28;20249;-68
2022/06/27 07:06:09;;;;;;;4.37;2.27;;;;;;;20.95;100.00;99913.28;4995498;28;20200;-68
2022/06/27 07:08:39;;;;;;;6.93;2.73;;;;;;;20.99;100.00;99908.56;4994916;28;20526;-70
2022/06/27 07:11:05;;;;;;;3.73;2.07;;;;;;;20.79;100.00;99898.34;5001315;28;20264;-68
2022/06/27 07:13:30;;;;;;;6.17;2.20;;;;;;;20.70;100.00;99906.25;5021060;28;20648;-70
2022/06/27 07:15:55;;;;;;;2.80;1.83;;;;;;;20.96;100.00;99914.09;5006431;28;20242;-70
2022/06/27 07:18:21;;;;;;;5.47;2.50;;;;;;;21.33;100.00;99926.03;5017888;28;20218;-68
2022/06/27 07:20:47;;;;;;;5.27;1.90;;;;;;;21.46;100.00;99928.22;5002391;28;20237;-69
2022/06/27 07:23:13;;;;;;;2.30;1.93;;;;;;;21.96;100.00;99929.16;4991542;28;20203;-68
2022/06/27 07:25:39;;;;;;;2.93;1.70;;;;;;;22.37;100.00;99928.34;5003812;28;20242;-67
2022/06/27 07:28:05;;;;;;;5.63;2.43;;;;;;;22.51;100.00;99929.50;5010231;28;20189;-68
2022/06/27 07:30:30;;;;;;;2.50;1.83;;;;;;;22.73;100.00;99930.63;4983060;28;20621;-67
2022/06/27 07:32:55;;;;;;;4.40;1.90;;;;;;;22.71;100.00;99935.19;5024481;28;20210;-67
2022/06/27 07:35:22;;;;;;;2.67;1.80;;;;;;;24.37;97.07;99945.72;5007096;28;20566;-67
2022/06/27 07:37:48;;;;;;;4.00;1.57;;;;;;;24.00;95.86;99956.00;5012440;28;20183;-64
2022/06/27 07:40:18;;;;;;;4.20;1.90;;;;;;;26.25;80.71;99952.31;4993692;28;20207;-65
2022/06/27 07:42:44;;;;;;;1.83;1.60;;;;;;;26.89;73.08;99952.34;5015272;28;20267;-63
2022/06/27 07:45:12;;;;;;;2.13;1.60;;;;;;;26.32;76.59;99954.19;5012780;28;20542;-65
2022/06/27 07:47:38;;;;;;;3.20;1.52;;;;;;;25.67;76.61;99951.53;4999451;28;20233;-66
2022/06/27 07:50:04;;;;;;;2.70;1.40;;;;;;;25.48;80.17;99945.88;5007120;28;20704;-65
2022/06/27 07:52:29;;;;;;;3.45;2.13;;;;;;;24.86;85.31;99944.44;5022930;28;20592;-66
2022/06/27 07:54:55;;;;;;;3.45;1.60;;;;;;;24.52;87.59;99938.66;5024021;28;20179;-64
2022/06/27 07:57:21;;;;;;;6.47;1.92;;;;;;;24.78;88.68;99945.34;5013591;28;20289;-65
2022/06/27 07:59:47;;;;;;;2.35;2.00;;;;;;;24.62;87.26;99939.22;5028102;28;20540;-67
2022/06/27 08:02:13;;;;;;;4.97;1.73;;;;;;;24.58;85.52;99958.16;5018041;28;20228;-63
2022/06/27 08:04:41;;;;;;;2.72;1.50;;;;;;;24.72;85.60;99952.16;5013099;28;20183;-65
2022/06/27 08:07:06;;;;;;;2.88;1.58;;;;;;;24.33;89.89;99950.50;5015087;28;20234;-63
2022/06/27 08:09:32;;;;;;;2.13;1.88;;;;;;;24.71;87.53;99968.09;5012410;28;20191;-65
2022/06/27 08:11:58;;;;;;;3.08;1.60;;;;;;;24.46;87.23;99968.28;5017427;28;20283;-64
2022/06/27 08:14:23;;;;;;;1.77;1.63;;;;;;;24.13;87.03;99958.06;5009808;28;20269;-64
2022/06/27 08:16:51;;;;;;;2.92;1.73;;;;;;;23.77;92.10;99964.66;5007932;28;20191;-64
2022/06/27 08:19:18;;;;;;;2.07;1.60;;;;;;;23.68;95.57;99977.03;5003253;28;20571;-64
2022/06/27 08:21:44;;;;;;;1.93;1.80;;;;;;;23.46;95.77;99967.31;5014120;28;20666;-63
2022/06/27 08:24:16;;;;;;;1.77;1.67;;;;;;;23.35;97.35;99966.66;5012189;28;20191;-64
2022/06/27 08:26:46;;;;;;;2.43;2.03;;;;;;;23.01;100.00;99969.56;5005861;28;20564;-64
2022/06/27 08:29:12;;;;;;;5.23;2.10;;;;;;;23.10;100.00;99975.59;5005487;28;20233;-64
2022/06/27 08:31:39;;;;;;;3.33;2.23;;;;;;;23.05;100.00;99968.22;5000479;28;20218;-63
2022/06/27 08:34:06;;;;;;;3.13;1.67;;;;;;;22.88;99.52;99968.28;5011419;28;20183;-66
2022/06/27 08:36:33;;;;;;;3.20;1.93;;;;;;;23.29;nan;99972.59;4999178;28;20199;-65
2022/06/27 08:38:59;;;;;;;4.20;1.80;;;;;;;23.23;100.00;99983.78;5012511;28;20202;-66
2022/06/27 08:41:25;;;;;;;1.70;1.60;;;;;;;22.62;94.40;99978.16;5012847;28;20225;-65
2022/06/27 08:43:55;;;;;;;3.37;1.93;;;;;;;22.84;94.39;99987.13;5023254;28;20189;-64
2022/06/27 08:46:22;;;;;;;2.23;1.80;;;;;;;23.34;98.31;100007.03;5016568;28;20175;-65
2022/06/27 08:48:50;;;;;;;3.33;2.23;;;;;;;23.75;91.89;100010.47;5011362;28;20218;-65
2022/06/27 08:51:16;;;;;;;1.50;1.40;;;;;;;24.11;91.88;100009.97;5011203;28;20217;-64
2022/06/27 08:53:42;;;;;;;2.73;1.90;;;;;;;24.12;91.10;100017.66;5021552;28;20236;-63
2022/06/27 08:56:10;;;;;;;4.57;1.63;;;;;;;25.33;90.25;100016.94;5009378;28;20181;-63
2022/06/27 08:58:37;;;;;;;1.75;1.55;;;;;;;28.38;68.09;100023.19;5011964;28;20252;-65
2022/06/27 09:01:03;;;;;;;2.83;1.38;;;;;;;28.83;56.66;100034.00;5010477;28;20234;-66
2022/06/27 09:03:29;;;;;;;1.55;1.45;;;;;;;28.29;58.51;100033.97;5020006;28;20194;-67
2022/06/27 09:06:02;;;;;;;3.17;1.48;;;;;;;27.25;62.93;100011.22;5014036;28;20190;-65
2022/06/27 09:08:34;;;;;;;3.08;1.50;;;;;;;25.99;72.55;100015.31;5027253;28;20550;-65
2022/06/27 09:11:00;;;;;;;1.88;1.60;;;;;;;25.52;72.10;100017.41;4994246;28;20357;-65
2022/06/27 09:13:27;;;;;;;1.70;1.23;;;;;;;26.58;73.52;100028.25;5010137;28;20273;-65
2022/06/27 09:16:11;;;;;;;4.70;1.35;;;;;;;28.05;59.78;100019.50;5002701;28;20248;-65
2022/06/27 09:18:37;;;;;;;2.60;1.60;;;;;;;28.65;54.04;100021.34;5005427;28;20237;-66
2022/06/27 09:21:09;;;;;;;2.45;1.40;;;;;;;30.06;51.47;100020.94;5006494;28;20308;-65
2022/06/27 09:23:49;;;;;;;2.17;1.60;;;;;;;31.28;44.38;100021.50;5013119;28;20592;-67
2022/06/27 09:26:21;;;;;;;4.03;1.15;;;;;;;32.33;40.37;100033.59;4999119;28;20255;-66
2022/06/27 09:28:50;;;;;;;2.72;1.67;;;;;;;32.19;43.83;100040.16;5002482;28;20210;-67
2022/06/27 09:31:25;;;;;;;2.45;1.63;;;;;;;33.44;39.62;100058.69;5003136;28;20222;-66
2022/06/27 09:34:02;;;;;;;1.88;1.50;;;;;;;33.13;38.78;100057.22;4998303;28;20605;-67
2022/06/27 09:36:29;;;;;;;1.92;1.48;;;;;;;31.90;40.12;100047.13;5000236;28;20209;-65
2022/06/27 09:38:56;;;;;;;2.80;1.40;;;;;;;30.89;42.72;100054.34;4993997;28;20626;-66
2022/06/27 09:41:25;;;;;;;1.50;1.40;;;;;;;30.49;43.08;100045.94;5012499;28;20220;-66
2022/06/27 09:43:51;;;;;;;5.03;1.70;;;;;;;31.43;41.16;100031.75;5019653;28;20212;-65
2022/06/27 09:46:18;;;;;;;2.72;1.50;;;;;;;31.76;40.52;100030.53;5012541;28;20183;-66
2022/06/27 09:48:45;;;;;;;1.20;1.20;;;;;;;31.59;41.89;100030.31;5011066;28;20658;-67
2022/06/27 09:51:17;;;;;;;2.55;1.20;;;;;;;33.37;39.64;100042.03;5011192;28;20309;-68
2022/06/27 09:53:47;;;;;;;1.30;1.13;;;;;;;31.55;41.08;100049.34;5012616;28;20213;-66
2022/06/27 09:56:15;;;;;;;3.03;1.67;;;;;;;30.21;44.11;100036.53;5007452;28;20321;-66
2022/06/27 09:58:41;;;;;;;1.80;1.52;;;;;;;29.84;47.46;100047.72;5010649;28;20207;-67
2022/06/27 10:01:08;;;;;;;3.00;1.70;;;;;;;28.59;52.42;100053.91;5020818;28;20225;-66
2022/06/27 10:03:36;;;;;;;3.40;2.00;;;;;;;28.42;55.23;100048.19;5023278;28;20305;-66
2022/06/27 10:06:03;;;;;;;3.42;2.72;;;;;;;28.58;55.13;100047.81;5017647;28;20185;-66
2022/06/27 10:08:32;;;;;;;2.88;2.50;;;;;;;27.83;53.95;100040.75;5015545;28;20190;-65
2022/06/27 10:11:01;;;;;;;3.08;2.80;;;;;;;27.48;59.12;100048.75;5011204;28;20234;-66
2022/06/27 10:13:30;;;;;;;4.70;2.10;;;;;;;27.57;57.92;100059.16;5013408;28;20517;-66
2022/06/27 10:16:05;;;;;;;3.13;2.85;;;;;;;27.08;56.01;100053.81;5010435;28;20701;-66
2022/06/27 10:18:59;;;;;;;3.08;2.70;;;;;;;26.86;57.45;100050.41;5013014;28;20198;-65
2022/06/27 10:21:27;;;;;;;5.18;3.00;;;;;;;26.12;63.35;100064.72;5015467;28;20230;-67
2022/06/27 10:24:21;;;;;;;3.08;2.88;;;;;;;25.37;67.37;100076.16;5012657;28;20611;-67
2022/06/27 10:26:49;;;;;;;4.63;3.10;;;;;;;24.84;74.43;100078.78;5005091;28;20168;-66
2022/06/27 10:29:29;;;;;;;4.38;3.70;;;;;;;24.19;77.38;100099.25;5005116;28;20221;-66
2022/06/27 10:31:55;;;;;;;3.78;3.33;;;;;;;23.96;80.34;100102.63;5003634;28;20701;-66
2022/06/27 10:34:46;;;;;;;4.22;3.47;;;;;;;23.47;83.85;100095.75;5006425;28;20270;-65
2022/06/27 10:37:20;;;;;;;3.00;2.80;;;;;;;23.29;82.67;100097.75;4996836;28;20313;-63
2022/06/27 10:39:46;;;;;;;3.10;2.80;;;;;;;23.27;83.87;100084.81;5003649;28;20662;-64
2022/06/27 10:42:45;;;;;;;4.70;3.10;;;;;;;23.31;85.98;100096.59;5019443;28;20292;-67
2022/06/27 10:45:20;;;;;;;4.37;2.43;;;;;;;23.49;86.66;100072.78;5031071;28;20175;-64
2022/06/27 10:47:46;;;;;;;2.37;2.20;;;;;;;23.63;83.21;100079.13;5029196;28;20269;-67
2022/06/27 10:50:17;;;;;;;3.10;2.30;;;;;;;23.74;77.44;100077.09;5003024;28;20213;-65
2022/06/27 10:52:43;;;;;;;4.37;2.00;;;;;;;24.13;79.52;100081.56;5028396;28;20221;-65
2022/06/27 10:55:26;;;;;;;2.10;2.00;;;;;;;24.16;75.86;100087.28;5014115;28;20216;-66
2022/06/27 10:57:53;;;;;;;2.70;2.00;;;;;;;24.32;73.32;100081.13;5013118;28;20179;-67
2022/06/27 11:00:38;;;;;;;4.70;2.40;;;;;;;24.58;70.49;100079.13;4990965;28;20215;-64
2022/06/27 11:03:04;;;;;;;2.60;1.80;;;;;;;25.23;67.19;100090.91;5016270;28;20182;-66
2022/06/27 11:05:32;;;;;;;1.67;1.57;;;;;;;25.30;61.33;100097.09;5011049;28;20636;-65
2022/06/27 11:07:58;;;;;;;3.28;1.75;;;;;;;25.22;63.27;100102.44;5010600;28;20190;-66
2022/06/27 11:10:24;;;;;;;2.78;1.83;;;;;;;25.52;61.58;100102.47;5021916;28;20348;-65
2022/06/27 11:12:49;;;;;;;1.45;1.35;;;;;;;25.10;61.65;100095.97;5028057;28;20207;-67
2022/06/27 11:15:15;;;;;;;3.10;1.85;;;;;;;24.90;63.76;100111.47;5017228;28;20182;-66
2022/06/27 11:17:42;;;;;;;3.55;1.77;;;;;;;24.67;66.02;100106.22;5027207;28;20198;-63
2022/06/27 11:20:16;;;;;;;3.83;2.10;;;;;;;24.80;62.41;100106.44;5001279;28;20231;-64
2022/06/27 11:22:44;;;;;;;2.08;1.60;;;;;;;24.64;60.35;100116.03;5025393;28;20172;-63
2022/06/27 11:25:10;;;;;;;2.03;1.85;;;;;;;24.83;61.04;100106.06;5009208;28;20183;-65
2022/06/27 11:33:48;;;;;;;6.28;1.38;;;;;;;25.99;55.09;100092.53;5008152;28;20661;-65